createdAt,value
2023-04-16T00:02:08.488Z,9.68
2023-04-16T00:04:35.865Z,7.03
2023-04-16T00:07:03.226Z,7.55
2023-04-16T00:09:30.805Z,10.05
2023-04-16T00:11:58.027Z,7.93
2023-04-16T00:14:25.344Z,6.95
2023-04-16T00:16:52.600Z,8.23
2023-04-16T00:19:19.830Z,9.00
2023-04-16T00:21:47.026Z,5.88
2023-04-16T00:24:14.268Z,6.28
2023-04-16T00:26:41.471Z,8.52
2023-04-16T00:29:08.899Z,8.05
2023-04-16T00:31:36.221Z,6.30
2023-04-16T00:34:03.522Z,8.43
2023-04-16T00:36:30.897Z,4.65
2023-04-16T00:38:58.119Z,5.97
2023-04-16T00:41:26.204Z,7.15
2023-04-16T00:43:53.384Z,7.35
2023-04-16T00:46:22.781Z,6.78
2023-04-16T00:48:50.358Z,6.57
2023-04-16T00:51:17.711Z,5.75
2023-04-16T00:53:46.239Z,5.70
2023-04-16T00:56:13.552Z,7.13
2023-04-16T00:58:41.168Z,8.10
2023-04-16T01:01:08.525Z,6.07
2023-04-16T01:03:40.079Z,6.03
2023-04-16T01:06:08.096Z,5.95
2023-04-16T01:08:35.353Z,6.95
2023-04-16T01:11:02.649Z,6.18
2023-04-16T01:13:30.162Z,6.10
2023-04-16T01:15:57.401Z,6.10
2023-04-16T01:18:24.910Z,5.90
2023-04-16T01:20:52.533Z,5.35
2023-04-16T01:23:19.954Z,7.97
2023-04-16T01:25:47.821Z,9.50
2023-04-16T01:28:15.000Z,7.07
2023-04-16T01:30:42.193Z,7.82
2023-04-16T01:33:11.025Z,6.68
2023-04-16T01:35:38.525Z,5.03
2023-04-16T01:38:06.737Z,6.25
2023-04-16T01:40:34.042Z,5.50
2023-04-16T01:43:01.302Z,8.88
2023-04-16T01:45:28.690Z,6.75
2023-04-16T01:47:55.963Z,5.80
2023-04-16T01:50:24.288Z,7.97
2023-04-16T01:52:51.456Z,7.70
2023-04-16T01:55:18.768Z,5.90
2023-04-16T01:57:46.396Z,6.00
2023-04-16T02:00:13.625Z,5.97
2023-04-16T02:02:41.034Z,4.68
2023-04-16T02:05:08.467Z,6.75
2023-04-16T02:07:35.708Z,5.57
2023-04-16T02:10:04.681Z,5.05
2023-04-16T02:12:31.885Z,6.93
2023-04-16T02:14:59.037Z,5.30
2023-04-16T02:17:26.256Z,5.65
2023-04-16T02:19:53.526Z,5.82
2023-04-16T02:22:20.816Z,6.55
2023-04-16T02:24:48.078Z,7.03
2023-04-16T02:27:16.077Z,6.97
2023-04-16T02:29:43.374Z,4.43
2023-04-16T02:32:10.753Z,5.88
2023-04-16T02:34:40.144Z,4.50
2023-04-16T02:37:07.468Z,6.00
2023-04-16T02:39:37.731Z,4.47
2023-04-16T02:42:04.893Z,4.38
2023-04-16T02:44:32.333Z,5.40
2023-04-16T02:46:59.510Z,5.38
2023-04-16T02:49:26.656Z,5.15
2023-04-16T02:51:53.816Z,4.85
2023-04-16T02:54:20.947Z,4.63
2023-04-16T02:56:48.104Z,5.20
2023-04-16T02:59:15.379Z,4.68
2023-04-16T03:01:42.569Z,5.45
2023-04-16T03:04:09.952Z,4.30
2023-04-16T03:06:37.227Z,8.43
2023-04-16T03:09:04.418Z,4.28
2023-04-16T03:11:31.615Z,6.80
2023-04-16T03:13:58.899Z,5.30
2023-04-16T03:16:26.164Z,6.60
2023-04-16T03:18:53.408Z,4.18
2023-04-16T03:21:20.610Z,4.22
2023-04-16T03:23:47.873Z,6.57
2023-04-16T03:26:15.262Z,6.28
2023-04-16T03:28:42.388Z,5.40
2023-04-16T03:31:09.548Z,4.30
2023-04-16T03:33:37.073Z,5.03
2023-04-16T03:36:04.238Z,4.22
2023-04-16T03:38:31.457Z,5.38
2023-04-16T03:40:58.667Z,4.95
2023-04-16T03:43:25.916Z,3.80
2023-04-16T03:45:53.121Z,4.80
2023-04-16T03:48:20.356Z,3.95
2023-04-16T03:50:48.119Z,3.53
2023-04-16T03:53:15.558Z,5.18
2023-04-16T03:55:43.189Z,7.18
2023-04-16T03:58:10.821Z,3.63
2023-04-16T04:00:38.002Z,5.72
2023-04-16T04:03:05.668Z,3.50
2023-04-16T04:05:36.483Z,4.63
2023-04-16T04:08:03.845Z,6.00
2023-04-16T04:10:33.032Z,4.07
2023-04-16T04:13:00.589Z,3.85
2023-04-16T04:15:27.810Z,4.00
2023-04-16T04:17:55.043Z,3.25
2023-04-16T04:20:22.178Z,4.25
2023-04-16T04:22:49.381Z,3.70
2023-04-16T04:25:17.209Z,3.42
2023-04-16T04:27:44.482Z,4.95
2023-04-16T04:30:11.944Z,3.40
2023-04-16T04:32:39.240Z,3.03
2023-04-16T04:35:06.614Z,3.40
2023-04-16T04:37:33.841Z,3.17
2023-04-16T04:40:01.029Z,3.75
2023-04-16T04:42:28.217Z,2.72
2023-04-16T04:44:55.398Z,3.55
2023-04-16T04:47:22.598Z,4.75
2023-04-16T04:49:49.751Z,3.63
2023-04-16T04:52:16.984Z,4.28
2023-04-16T04:54:44.187Z,4.28
2023-04-16T04:57:11.416Z,4.30
2023-04-16T04:59:38.598Z,4.35
2023-04-16T05:02:06.316Z,3.20
2023-04-16T05:04:33.609Z,3.67
2023-04-16T05:07:01.792Z,3.03
2023-04-16T05:09:28.940Z,3.50
2023-04-16T05:11:57.461Z,3.90
2023-04-16T05:14:24.680Z,3.90
2023-04-16T05:16:51.837Z,3.92
2023-04-16T05:19:19.061Z,3.92
2023-04-16T05:21:46.310Z,5.00
2023-04-16T05:24:15.012Z,3.42
2023-04-16T05:26:42.387Z,4.28
2023-04-16T05:29:09.927Z,3.22
2023-04-16T05:31:37.637Z,3.15
2023-04-16T05:34:04.870Z,3.42
2023-04-16T05:36:32.116Z,2.45
2023-04-16T05:38:59.308Z,5.32
2023-04-16T05:41:26.526Z,3.80
2023-04-16T05:43:53.709Z,5.45
2023-04-16T05:46:20.991Z,3.13
2023-04-16T05:48:48.202Z,4.20
2023-04-16T05:51:15.397Z,2.58
2023-04-16T05:53:42.793Z,4.22
2023-04-16T05:56:10.287Z,3.30
2023-04-16T05:58:37.417Z,4.93
2023-04-16T06:01:04.643Z,2.70
2023-04-16T06:03:31.932Z,4.07
2023-04-16T06:05:59.172Z,2.85
2023-04-16T06:08:26.411Z,5.30
2023-04-16T06:10:54.020Z,6.63
2023-04-16T06:13:21.433Z,3.97
2023-04-16T06:15:48.673Z,5.43
2023-04-16T06:18:16.086Z,3.03
2023-04-16T06:20:43.282Z,2.78
2023-04-16T06:23:10.747Z,5.88
2023-04-16T06:25:37.882Z,5.40
2023-04-16T06:28:05.215Z,4.43
2023-04-16T06:30:32.430Z,5.78
2023-04-16T06:32:59.751Z,4.07
2023-04-16T06:35:26.999Z,5.43
2023-04-16T06:37:54.199Z,5.97
2023-04-16T06:40:21.352Z,3.35
2023-04-16T06:42:48.613Z,4.95
2023-04-16T06:45:15.913Z,3.47
2023-04-16T06:47:43.192Z,3.47
2023-04-16T06:50:10.727Z,3.67
2023-04-16T06:52:37.891Z,8.88
2023-04-16T06:55:05.278Z,3.40
2023-04-16T06:57:32.420Z,5.32
2023-04-16T06:59:59.562Z,4.20
2023-04-16T07:02:27.076Z,6.50
2023-04-16T07:04:54.648Z,4.93
2023-04-16T07:07:21.791Z,6.70
2023-04-16T07:09:48.935Z,5.97
2023-04-16T07:12:16.120Z,6.43
2023-04-16T07:14:43.271Z,5.18
2023-04-16T07:17:10.458Z,4.90
2023-04-16T07:19:37.646Z,4.75
2023-04-16T07:22:05.030Z,7.63
2023-04-16T07:24:32.631Z,8.52
2023-04-16T07:26:59.810Z,7.53
2023-04-16T07:29:27.042Z,7.75
2023-04-16T07:31:54.252Z,8.95
2023-04-16T07:34:21.439Z,10.75
2023-04-16T07:36:48.591Z,6.70
2023-04-16T07:39:15.972Z,7.25
2023-04-16T07:41:44.002Z,6.53
2023-04-16T07:44:11.179Z,9.23
2023-04-16T07:46:46.111Z,10.13
2023-04-16T07:49:13.856Z,6.82
2023-04-16T07:51:41.053Z,5.43
2023-04-16T07:54:08.230Z,6.57
2023-04-16T07:56:35.619Z,7.95
2023-04-16T07:59:14.290Z,8.35
2023-04-16T08:01:46.426Z,7.88
2023-04-16T08:04:14.342Z,8.65
2023-04-16T08:06:41.660Z,10.05
2023-04-16T08:09:09.067Z,6.35
2023-04-16T08:11:36.626Z,5.93
2023-04-16T08:14:03.805Z,7.05
2023-04-16T08:16:31.076Z,5.28
2023-04-16T08:19:00.911Z,4.72
2023-04-16T08:21:29.311Z,4.07
2023-04-16T08:23:56.527Z,4.95
2023-04-16T08:26:23.698Z,3.70
2023-04-16T08:28:50.893Z,4.20
2023-04-16T08:31:18.187Z,5.55
2023-04-16T08:33:45.471Z,4.60
2023-04-16T08:36:13.092Z,3.92
2023-04-16T08:38:40.705Z,4.05
2023-04-16T08:41:10.275Z,4.80
2023-04-16T08:43:39.227Z,4.18
2023-04-16T08:46:06.572Z,3.88
2023-04-16T08:48:34.642Z,7.18
2023-04-16T08:51:02.456Z,18.23
2023-04-16T08:53:33.569Z,11.45
2023-04-16T08:56:05.124Z,10.15
2023-04-16T08:58:34.746Z,7.30
2023-04-16T09:01:04.318Z,8.82
2023-04-16T09:03:36.685Z,7.38
2023-04-16T09:06:05.127Z,9.68
2023-04-16T09:08:32.909Z,9.77
2023-04-16T09:11:00.451Z,12.88
2023-04-16T09:13:27.780Z,8.02
2023-04-16T09:15:56.955Z,5.18
2023-04-16T09:18:24.457Z,9.82
2023-04-16T09:20:52.272Z,7.32
2023-04-16T09:23:19.508Z,11.18
2023-04-16T09:25:46.688Z,9.45
2023-04-16T09:28:13.846Z,13.18
2023-04-16T09:30:41.106Z,7.43
2023-04-16T09:33:16.730Z,7.85
2023-04-16T09:38:11.094Z,5.57
2023-04-16T09:40:39.746Z,12.23
2023-04-16T09:43:16.388Z,10.00
2023-04-16T09:45:53.253Z,10.63
2023-04-16T09:48:30.563Z,9.85
2023-04-16T09:50:58.104Z,5.57
2023-04-16T09:53:26.611Z,8.48
2023-04-16T09:55:57.975Z,9.73
2023-04-16T09:58:25.257Z,9.32
2023-04-16T10:01:02.410Z,7.85
2023-04-16T10:03:33.267Z,9.98
2023-04-16T10:06:02.101Z,7.18
2023-04-16T10:08:29.380Z,12.40
2023-04-16T10:10:56.727Z,13.02
2023-04-16T10:13:27.843Z,10.95
2023-04-16T10:15:58.783Z,9.35
2023-04-16T10:18:26.363Z,10.85
2023-04-16T10:20:53.635Z,12.27
2023-04-16T10:23:22.137Z,12.35
2023-04-16T10:25:53.556Z,23.98
2023-04-16T10:28:24.269Z,37.55
2023-04-16T10:30:55.147Z,37.80
2023-04-16T10:33:23.448Z,52.50
2023-04-16T10:36:01.354Z,60.10
2023-04-16T10:38:35.250Z,68.47
2023-04-16T10:41:06.537Z,117.00
2023-04-16T10:44:00.009Z,88.25
2023-04-16T10:46:31.324Z,79.72
2023-04-16T10:49:01.946Z,90.65
2023-04-16T10:51:29.404Z,90.25
2023-04-16T10:53:57.218Z,83.82
2023-04-16T10:56:25.371Z,86.97
2023-04-16T10:58:54.868Z,81.97
2023-04-16T11:01:27.214Z,74.95
2023-04-16T11:03:54.737Z,75.30
2023-04-16T11:06:26.584Z,72.07
2023-04-16T11:08:55.304Z,71.10
2023-04-16T11:11:22.969Z,70.05
2023-04-16T11:13:50.134Z,72.45
2023-04-16T11:16:17.764Z,68.85
2023-04-16T11:18:51.007Z,67.65
2023-04-16T11:21:18.845Z,66.00
2023-04-16T11:23:47.455Z,65.63
2023-04-16T11:26:33.298Z,62.40
2023-04-16T11:29:00.944Z,61.45
2023-04-16T11:31:28.273Z,62.15
2023-04-16T11:33:56.701Z,65.88
2023-04-16T11:36:26.096Z,62.92
2023-04-16T11:39:02.106Z,65.38
2023-04-16T11:41:29.256Z,63.60
2023-04-16T11:43:56.780Z,59.92
2023-04-16T11:46:27.836Z,62.13
2023-04-16T11:48:56.177Z,60.80
2023-04-16T11:51:23.861Z,56.88
2023-04-16T11:53:54.481Z,58.60
2023-04-16T11:56:32.339Z,55.55
2023-04-16T11:59:18.339Z,54.95
2023-04-16T12:01:50.014Z,56.25
2023-04-16T12:04:18.243Z,55.63
2023-04-16T12:07:04.102Z,53.72
2023-04-16T12:09:31.350Z,52.35
2023-04-16T12:11:58.570Z,54.33
2023-04-16T12:14:25.804Z,51.35
2023-04-16T12:16:53.033Z,49.78
2023-04-16T12:19:20.281Z,51.03
2023-04-16T12:21:48.379Z,50.72
2023-04-16T12:24:24.212Z,48.58
2023-04-16T12:27:03.230Z,49.30
2023-04-16T12:29:31.907Z,48.60
2023-04-16T12:31:59.112Z,46.95
2023-04-16T12:34:48.146Z,48.08
2023-04-16T12:37:14.858Z,45.97
2023-04-16T12:39:42.326Z,44.78
2023-04-16T12:42:11.323Z,44.75
2023-04-16T12:44:38.457Z,43.00
2023-04-16T12:47:05.704Z,41.97
2023-04-16T12:49:33.011Z,41.88
2023-04-16T12:52:00.141Z,41.28
2023-04-16T12:54:29.757Z,41.83
2023-04-16T12:56:56.937Z,41.72
2023-04-16T12:59:24.375Z,41.25
2023-04-16T13:01:51.601Z,38.42
2023-04-16T13:04:19.212Z,39.35
2023-04-16T13:06:46.524Z,38.72
2023-04-16T13:09:13.696Z,38.33
2023-04-16T13:11:41.137Z,37.75
2023-04-16T13:14:08.283Z,37.20
2023-04-16T13:16:35.641Z,35.58
2023-04-16T13:19:02.814Z,37.28
2023-04-16T13:21:30.056Z,35.88
2023-04-16T13:23:57.238Z,34.95
2023-04-16T13:26:24.444Z,36.88
2023-04-16T13:28:51.591Z,34.25
2023-04-16T13:31:20.608Z,35.63
2023-04-16T13:33:47.912Z,34.17
2023-04-16T13:36:15.057Z,33.22
2023-04-16T13:38:42.269Z,34.83
2023-04-16T13:41:09.433Z,33.05
2023-04-16T13:43:37.768Z,32.50
2023-04-16T13:46:04.978Z,33.10
2023-04-16T13:48:32.725Z,30.13
2023-04-16T13:50:59.897Z,32.35
2023-04-16T13:53:27.083Z,31.67
2023-04-16T13:55:54.298Z,31.05
2023-04-16T13:58:21.507Z,32.15
2023-04-16T14:00:48.803Z,32.88
2023-04-16T14:03:16.427Z,33.50
2023-04-16T14:05:43.748Z,31.80
2023-04-16T14:08:11.249Z,30.48
2023-04-16T14:10:38.377Z,31.80
2023-04-16T14:13:05.665Z,30.17
2023-04-16T14:15:32.903Z,32.05
2023-04-16T14:18:01.183Z,30.98
2023-04-16T14:20:28.402Z,30.02
2023-04-16T14:22:56.068Z,29.50
2023-04-16T14:25:23.283Z,29.30
2023-04-16T14:27:51.200Z,28.20
2023-04-16T14:30:18.380Z,28.95
2023-04-16T14:32:45.680Z,28.38
2023-04-16T14:35:12.897Z,27.08
2023-04-16T14:37:40.842Z,26.73
2023-04-16T14:40:08.961Z,27.40
2023-04-16T14:42:36.810Z,25.67
2023-04-16T14:45:06.664Z,26.00
2023-04-16T14:47:34.496Z,22.60
2023-04-16T14:50:02.001Z,20.92
2023-04-16T14:52:29.310Z,19.65
2023-04-16T14:54:56.525Z,19.02
2023-04-16T14:57:23.826Z,18.30
2023-04-16T14:59:51.083Z,15.63
2023-04-16T15:02:18.783Z,17.00
2023-04-16T15:04:46.236Z,20.55
2023-04-16T15:07:13.541Z,23.85
2023-04-16T15:09:40.693Z,25.15
2023-04-16T15:12:07.874Z,25.35
2023-04-16T15:14:35.238Z,23.23
2023-04-16T15:17:02.535Z,24.05
2023-04-16T15:19:29.783Z,23.00
2023-04-16T15:21:56.943Z,23.65
2023-04-16T15:24:24.656Z,22.42
2023-04-16T15:26:52.012Z,23.08
2023-04-16T15:29:19.218Z,22.27
2023-04-16T15:31:46.420Z,21.05
2023-04-16T15:34:13.615Z,20.25
2023-04-16T15:36:40.942Z,20.60
2023-04-16T15:39:08.579Z,21.40
2023-04-16T15:41:46.942Z,21.83
2023-04-16T15:44:24.506Z,20.92
2023-04-16T15:46:51.668Z,20.55
2023-04-16T15:49:18.828Z,18.88
2023-04-16T15:51:46.200Z,17.42
2023-04-16T15:54:13.353Z,19.50
2023-04-16T15:56:40.604Z,17.95
2023-04-16T15:59:08.092Z,19.08
2023-04-16T16:01:35.561Z,18.60
2023-04-16T16:04:03.175Z,19.13
2023-04-16T16:06:31.496Z,19.90
2023-04-16T16:08:59.200Z,20.40
2023-04-16T16:11:26.394Z,17.65
2023-04-16T16:13:53.597Z,17.13
2023-04-16T16:16:21.886Z,16.58
2023-04-16T16:18:49.229Z,16.10
2023-04-16T16:21:16.669Z,18.55
2023-04-16T16:23:43.845Z,14.88
2023-04-16T16:26:11.081Z,14.70
2023-04-16T16:28:38.308Z,14.43
2023-04-16T16:31:07.117Z,17.00
2023-04-16T16:33:34.347Z,16.45
2023-04-16T16:36:01.563Z,14.65
2023-04-16T16:38:28.760Z,13.65
2023-04-16T16:40:55.951Z,15.57
2023-04-16T16:43:23.110Z,14.23
2023-04-16T16:45:50.515Z,15.05
2023-04-16T16:48:17.688Z,12.93
2023-04-16T16:50:44.993Z,12.15
2023-04-16T16:53:12.132Z,13.70
2023-04-16T16:55:39.282Z,13.43
2023-04-16T16:58:06.764Z,13.95
2023-04-16T17:00:34.209Z,13.75
2023-04-16T17:03:01.868Z,12.75
2023-04-16T17:05:29.432Z,12.35
2023-04-16T17:07:56.645Z,11.25
2023-04-16T17:10:23.889Z,12.52
2023-04-16T17:12:51.904Z,15.70
2023-04-16T17:15:21.752Z,11.30
2023-04-16T17:17:49.561Z,12.05
2023-04-16T17:20:16.826Z,11.35
2023-04-16T17:22:44.095Z,11.23
2023-04-16T17:25:11.441Z,12.70
2023-04-16T17:27:41.782Z,10.93
2023-04-16T17:30:09.219Z,11.23
2023-04-16T17:32:36.523Z,11.25
2023-04-16T17:35:04.464Z,10.25
2023-04-16T17:37:31.885Z,11.32
2023-04-16T17:39:59.116Z,10.10
2023-04-16T17:42:26.309Z,10.82
2023-04-16T17:44:53.558Z,9.85
2023-04-16T17:47:20.986Z,9.30
2023-04-16T17:49:48.193Z,9.43
2023-04-16T17:52:15.420Z,10.98
2023-04-16T17:54:42.992Z,11.77
2023-04-16T17:57:10.222Z,10.77
2023-04-16T17:59:37.403Z,10.50
2023-04-16T18:02:04.766Z,11.80
2023-04-16T18:04:32.493Z,9.77
2023-04-16T18:06:59.796Z,10.45
2023-04-16T18:09:27.247Z,10.32
2023-04-16T18:11:54.543Z,10.38
2023-04-16T18:14:22.013Z,11.80
2023-04-16T18:16:49.416Z,13.20
2023-04-16T18:19:16.594Z,13.60
2023-04-16T18:21:44.071Z,12.18
2023-04-16T18:24:11.671Z,12.13
2023-04-16T18:26:41.072Z,12.23
2023-04-16T18:29:09.190Z,10.65
2023-04-16T18:31:36.683Z,11.70
2023-04-16T18:34:04.321Z,12.70
2023-04-16T18:36:31.573Z,10.55
2023-04-16T18:39:01.674Z,10.98
2023-04-16T18:41:29.978Z,10.90
2023-04-16T18:43:57.356Z,11.18
2023-04-16T18:46:25.274Z,11.02
2023-04-16T18:48:52.779Z,9.85
2023-04-16T18:51:20.004Z,12.57
2023-04-16T18:53:47.236Z,10.07
2023-04-16T18:56:14.387Z,10.70
2023-04-16T18:58:41.663Z,13.80
2023-04-16T19:01:11.409Z,11.60
2023-04-16T19:03:38.879Z,11.98
2023-04-16T19:06:06.584Z,11.88
2023-04-16T19:08:33.740Z,15.65
2023-04-16T19:11:01.035Z,17.00
2023-04-16T19:13:30.268Z,12.25
2023-04-16T19:16:01.456Z,13.15
2023-04-16T19:18:28.815Z,17.55
2023-04-16T19:21:02.356Z,20.75
2023-04-16T19:23:29.841Z,23.20
2023-04-16T19:25:57.815Z,17.13
2023-04-16T19:28:25.308Z,16.45
2023-04-16T19:30:53.229Z,19.25
2023-04-16T19:33:20.755Z,22.75
2023-04-16T19:35:48.256Z,17.63
2023-04-16T19:38:15.559Z,17.45
2023-04-16T19:40:46.606Z,17.77
2023-04-16T19:43:13.977Z,17.73
2023-04-16T19:45:44.675Z,18.83
2023-04-16T19:48:12.098Z,18.60
2023-04-16T19:50:40.406Z,16.83
2023-04-16T19:53:08.062Z,20.20
2023-04-16T19:55:35.484Z,19.63
2023-04-16T19:58:06.444Z,15.85
2023-04-16T20:00:37.605Z,15.13
2023-04-16T20:03:06.398Z,18.70
2023-04-16T20:05:33.703Z,13.82
2023-04-16T20:08:00.881Z,18.27
2023-04-16T20:10:28.134Z,24.95
2023-04-16T20:12:55.347Z,22.90
2023-04-16T20:15:22.508Z,19.15
2023-04-16T20:17:49.933Z,18.63
2023-04-16T20:20:17.199Z,13.23
2023-04-16T20:22:44.391Z,20.30
2023-04-16T20:25:14.352Z,15.57
2023-04-16T20:27:41.713Z,13.35
2023-04-16T20:30:09.176Z,12.43
2023-04-16T20:32:36.450Z,14.45
2023-04-16T20:35:05.097Z,16.80
2023-04-16T20:37:32.401Z,13.55
2023-04-16T20:39:59.646Z,14.20
2023-04-16T20:42:27.613Z,13.07
2023-04-16T20:44:56.485Z,17.98
2023-04-16T20:47:23.985Z,15.32
2023-04-16T20:49:52.794Z,14.18
2023-04-16T20:52:20.268Z,12.63
2023-04-16T20:54:47.819Z,19.58
2023-04-16T20:57:15.095Z,15.13
2023-04-16T20:59:42.700Z,19.58
2023-04-16T21:02:10.069Z,12.80
2023-04-16T21:04:37.632Z,13.05
2023-04-16T21:07:04.956Z,13.20
2023-04-16T21:09:32.130Z,16.05
2023-04-16T21:11:59.362Z,16.08
2023-04-16T21:14:26.547Z,14.35
2023-04-16T21:16:54.771Z,13.48
2023-04-16T21:19:22.505Z,13.60
2023-04-16T21:21:49.712Z,17.85
2023-04-16T21:24:16.903Z,13.55
2023-04-16T21:26:44.092Z,14.75
2023-04-16T21:29:11.613Z,12.98
2023-04-16T21:31:39.144Z,15.65
2023-04-16T21:34:06.525Z,16.77
2023-04-16T21:36:34.126Z,20.00
2023-04-16T21:39:01.466Z,14.48
2023-04-16T21:41:28.685Z,14.18
2023-04-16T21:43:55.863Z,13.13
2023-04-16T21:46:23.150Z,13.82
2023-04-16T21:48:50.878Z,17.67
2023-04-16T21:51:18.180Z,11.70
2023-04-16T21:53:45.534Z,15.35
2023-04-16T21:56:12.741Z,15.80
2023-04-16T21:58:39.868Z,12.90
2023-04-16T22:01:08.913Z,14.15
2023-04-16T22:03:40.360Z,14.10
2023-04-16T22:06:08.129Z,13.63
2023-04-16T22:08:35.419Z,17.08
2023-04-16T22:11:03.425Z,14.55
2023-04-16T22:13:36.396Z,14.45
2023-04-16T22:16:03.913Z,12.45
2023-04-16T22:18:34.184Z,18.70
2023-04-16T22:21:01.453Z,13.68
2023-04-16T22:23:28.613Z,12.85
2023-04-16T22:25:57.457Z,12.68
2023-04-16T22:28:24.679Z,13.50
2023-04-16T22:30:51.871Z,12.57
2023-04-16T22:33:19.062Z,12.68
2023-04-16T22:35:46.314Z,11.20
2023-04-16T22:38:13.495Z,10.48
2023-04-16T22:40:40.701Z,13.60
2023-04-16T22:43:07.892Z,11.10
2023-04-16T22:45:35.570Z,11.32
2023-04-16T22:48:03.927Z,11.82
2023-04-16T22:50:32.057Z,10.95
2023-04-16T22:52:59.211Z,12.70
2023-04-16T22:55:26.370Z,12.80
2023-04-16T22:57:53.606Z,10.93
2023-04-16T23:00:21.113Z,12.65
2023-04-16T23:02:48.413Z,12.57
2023-04-16T23:05:15.874Z,10.23
2023-04-16T23:07:43.086Z,11.07
2023-04-16T23:10:10.340Z,13.27
2023-04-16T23:12:37.629Z,9.73
2023-04-16T23:15:06.490Z,8.98
2023-04-16T23:17:34.948Z,9.98
2023-04-16T23:20:02.385Z,9.15
2023-04-16T23:22:29.546Z,10.63
2023-04-16T23:24:56.926Z,11.27
2023-04-16T23:27:24.152Z,9.80
2023-04-16T23:29:51.396Z,8.20
2023-04-16T23:32:18.652Z,9.25
2023-04-16T23:34:46.044Z,8.10
2023-04-16T23:37:13.308Z,10.95
2023-04-16T23:39:40.963Z,9.82
2023-04-16T23:42:08.184Z,8.45
2023-04-16T23:44:35.388Z,8.52
2023-04-16T23:47:02.780Z,9.98
2023-04-16T23:49:30.011Z,9.23
2023-04-16T23:51:57.296Z,8.85
2023-04-16T23:54:24.570Z,9.63
2023-04-16T23:56:51.724Z,8.98
2023-04-16T23:59:18.880Z,9.05
